Time,TemperatureF,DewpointF,PressureIn,WindDirection,WindDirectionDegrees,WindSpeedMPH,WindSpeedGustMPH,Humidity,HourlyPrecipIn,Conditions,Clouds,dailyrainin,SoftwareType,DateUTC
2013-02-22 00:00:00,69.1,62.4,30.02,ESE,113,0.4,0.4,79,0.00,,,0.00,WUHU216HW,2013-02-22 05:00:00,
2013-02-22 00:05:00,69.1,62.4,30.02,ESE,113,0.4,0.4,79,0.00,,,0.00,WUHU216HW,2013-02-22 05:05:00,
2013-02-22 00:29:00,68.6,62.2,30.01,SSE,158,0.7,0.7,80,0.00,,,0.00,WUHU216HW,2013-02-22 05:29:00,
2013-02-22 00:34:00,68.6,62.2,30.01,SSE,158,0.7,0.7,80,0.00,,,0.00,WUHU216HW,2013-02-22 05:34:00,
2013-02-22 00:59:00,68.0,61.7,30.00,ESE,113,0.4,0.4,80,0.00,,,0.00,WUHU216HW,2013-02-22 05:59:00,
2013-02-22 01:04:00,68.0,61.7,30.00,ESE,113,0.4,0.4,80,0.00,,,0.00,WUHU216HW,2013-02-22 06:04:00,
2013-02-22 01:29:00,67.9,61.9,30.00,SE,135,0.0,0.0,81,0.00,,,0.00,WUHU216HW,2013-02-22 06:29:00,
2013-02-22 01:34:00,67.9,61.9,30.00,SE,135,0.0,0.0,81,0.00,,,0.00,WUHU216HW,2013-02-22 06:34:00,
2013-02-22 02:03:00,67.7,62.0,29.99,SE,135,0.0,0.0,82,0.00,,,0.00,WUHU216HW,2013-02-22 07:03:00,
2013-02-22 02:08:00,67.7,62.0,29.99,SE,135,0.0,0.0,82,0.00,,,0.00,WUHU216HW,2013-02-22 07:08:00,
2013-02-22 02:29:00,67.5,61.8,29.99,ENE,68,0.0,0.0,82,0.00,,,0.00,WUHU216HW,2013-02-22 07:29:00,
2013-02-22 02:34:00,67.5,61.8,29.99,ENE,68,0.0,0.0,82,0.00,,,0.00,WUHU216HW,2013-02-22 07:34:00,
2013-02-22 02:59:00,67.3,61.7,29.99,ESE,113,0.4,0.4,82,0.00,,,0.00,WUHU216HW,2013-02-22 07:59:00,
2013-02-22 03:04:00,67.3,61.7,29.99,ESE,113,0.4,0.4,82,0.00,,,0.00,WUHU216HW,2013-02-22 08:04:00,
2013-02-22 03:29:00,67.0,61.7,29.98,ESE,113,0.0,0.0,83,0.00,,,0.00,WUHU216HW,2013-02-22 08:29:00,
2013-02-22 03:34:00,67.0,61.7,29.98,ESE,113,0.0,0.0,83,0.00,,,0.00,WUHU216HW,2013-02-22 08:34:00,
2013-02-22 03:59:00,66.8,61.5,29.98,SE,135,0.4,0.4,83,0.00,,,0.00,WUHU216HW,2013-02-22 08:59:00,
2013-02-22 04:04:00,66.8,61.5,29.98,SE,135,0.4,0.4,83,0.00,,,0.00,WUHU216HW,2013-02-22 09:04:00,
2013-02-22 04:29:00,66.6,61.6,29.99,SE,135,0.0,0.0,84,0.00,,,0.00,WUHU216HW,2013-02-22 09:29:00,
2013-02-22 04:34:00,66.6,61.6,29.99,SE,135,0.0,0.0,84,0.00,,,0.00,WUHU216HW,2013-02-22 09:34:00,
2013-02-22 04:59:00,66.6,61.6,29.99,SSE,158,0.0,0.0,84,0.00,,,0.00,WUHU216HW,2013-02-22 09:59:00,
2013-02-22 05:04:00,66.6,61.6,29.99,SSE,158,0.0,0.0,84,0.00,,,0.00,WUHU216HW,2013-02-22 10:04:00,
2013-02-22 05:29:00,66.4,61.4,30.00,East,90,0.0,0.0,84,0.00,,,0.00,WUHU216HW,2013-02-22 10:29:00,
2013-02-22 05:34:00,66.4,61.4,30.00,East,90,0.0,0.0,84,0.00,,,0.00,WUHU216HW,2013-02-22 10:34:00,
2013-02-22 05:59:00,66.2,61.2,30.00,ESE,113,0.2,0.2,84,0.00,,,0.00,WUHU216HW,2013-02-22 10:59:00,
2013-02-22 06:04:00,66.2,61.2,30.00,ESE,113,0.2,0.2,84,0.00,,,0.00,WUHU216HW,2013-02-22 11:04:00,
2013-02-22 06:29:00,66.2,61.6,30.02,SE,135,0.2,0.2,85,0.00,,,0.00,WUHU216HW,2013-02-22 11:29:00,
2013-02-22 06:34:00,66.2,61.6,30.02,SE,135,0.2,0.2,85,0.00,,,0.00,WUHU216HW,2013-02-22 11:34:00,
2013-02-22 06:59:00,66.2,61.6,30.03,ESE,113,0.9,0.9,85,0.00,,,0.00,WUHU216HW,2013-02-22 11:59:00,
2013-02-22 07:04:00,66.2,61.6,30.03,ESE,113,0.9,0.9,85,0.00,,,0.00,WUHU216HW,2013-02-22 12:04:00,
2013-02-22 07:29:00,66.6,62.3,30.04,ESE,113,1.3,1.3,86,0.00,,,0.00,WUHU216HW,2013-02-22 12:29:00,
2013-02-22 07:34:00,66.6,62.3,30.04,ESE,113,1.3,1.3,86,0.00,,,0.00,WUHU216HW,2013-02-22 12:34:00,
2013-02-22 07:59:00,67.3,63.3,30.04,SE,135,1.1,1.1,87,0.00,,,0.00,WUHU216HW,2013-02-22 12:59:00,
2013-02-22 08:04:00,67.3,63.3,30.04,SE,135,1.1,1.1,87,0.00,,,0.00,WUHU216HW,2013-02-22 13:04:00,
2013-02-22 08:29:00,69.1,65.4,30.04,SE,135,4.5,4.5,88,0.00,,,0.00,WUHU216HW,2013-02-22 13:29:00,
2013-02-22 08:34:00,69.1,65.4,30.04,SE,135,4.5,4.5,88,0.00,,,0.00,WUHU216HW,2013-02-22 13:34:00,
2013-02-22 08:59:00,71.3,67.5,30.05,SE,135,1.1,1.1,88,0.00,,,0.00,WUHU216HW,2013-02-22 13:59:00,
2013-02-22 09:04:00,71.3,67.5,30.05,SE,135,1.1,1.1,88,0.00,,,0.00,WUHU216HW,2013-02-22 14:04:00,
2013-02-22 09:29:00,73.8,69.8,30.06,SE,135,4.0,4.0,87,0.00,,,0.00,WUHU216HW,2013-02-22 14:29:00,
2013-02-22 09:34:00,73.8,69.8,30.06,SE,135,4.0,4.0,87,0.00,,,0.00,WUHU216HW,2013-02-22 14:34:00,
2013-02-22 09:59:00,75.2,70.1,30.05,SSW,203,3.1,3.1,84,0.00,,,0.00,WUHU216HW,2013-02-22 14:59:00,
2013-02-22 10:04:00,75.2,70.1,30.05,SSW,203,3.1,3.1,84,0.00,,,0.00,WUHU216HW,2013-02-22 15:04:00,
2013-02-22 10:31:00,77.0,70.7,30.05,SSW,203,3.6,3.6,81,0.00,,,0.00,WUHU216HW,2013-02-22 15:31:00,
2013-02-22 10:36:00,77.0,70.7,30.05,SSW,203,3.6,3.6,81,0.00,,,0.00,WUHU216HW,2013-02-22 15:36:00,
2013-02-22 11:29:00,79.6,69.3,30.04,SSW,203,6.3,6.3,71,0.00,,,0.00,WUHU216HW,2013-02-22 16:29:00,
2013-02-22 11:34:00,79.6,69.3,30.04,SSW,203,6.3,6.3,71,0.00,,,0.00,WUHU216HW,2013-02-22 16:34:00,
2013-02-22 12:03:00,80.6,69.6,30.04,ESE,113,4.5,4.5,69,0.00,,,0.00,WUHU216HW,2013-02-22 17:03:00,
2013-02-22 12:08:00,80.6,69.6,30.04,ESE,113,4.5,4.5,69,0.00,,,0.00,WUHU216HW,2013-02-22 17:08:00,
2013-02-22 12:13:00,80.6,69.6,30.04,ESE,113,4.5,4.5,69,0.00,,,0.00,WUHU216HW,2013-02-22 17:13:00,
2013-02-22 12:29:00,81.5,68.6,30.03,South,180,6.7,6.7,65,0.00,,,0.00,WUHU216HW,2013-02-22 17:29:00,
2013-02-22 12:35:00,81.5,68.6,30.03,South,180,6.7,6.7,65,0.00,,,0.00,WUHU216HW,2013-02-22 17:35:00,
2013-02-22 12:59:00,82.1,66.8,30.02,ESE,113,2.5,2.5,60,0.00,,,0.00,WUHU216HW,2013-02-22 17:59:00,
2013-02-22 13:04:00,82.1,66.8,30.02,ESE,113,2.5,2.5,60,0.00,,,0.00,WUHU216HW,2013-02-22 18:04:00,
2013-02-22 13:29:00,82.4,68.9,30.00,SSE,158,2.7,2.7,64,0.00,,,0.00,WUHU216HW,2013-02-22 18:29:00,
2013-02-22 13:34:00,82.4,68.9,30.00,SSE,158,2.7,2.7,64,0.00,,,0.00,WUHU216HW,2013-02-22 18:34:00,
2013-02-22 14:00:00,82.6,70.5,29.99,SSE,158,2.9,2.9,67,0.00,,,0.00,WUHU216HW,2013-02-22 19:00:00,
2013-02-22 14:05:00,82.6,70.5,29.99,SSE,158,2.9,2.9,67,0.00,,,0.00,WUHU216HW,2013-02-22 19:05:00,
2013-02-22 14:29:00,83.9,71.7,29.99,South,180,3.4,3.4,67,0.00,,,0.00,WUHU216HW,2013-02-22 19:29:00,
2013-02-22 14:35:00,83.9,71.7,29.99,South,180,3.4,3.4,67,0.00,,,0.00,WUHU216HW,2013-02-22 19:35:00,
2013-02-22 14:59:00,82.8,70.7,29.99,SSE,158,8.7,8.7,67,0.00,,,0.00,WUHU216HW,2013-02-22 19:59:00,
2013-02-22 15:04:00,82.8,70.7,29.99,SSE,158,8.7,8.7,67,0.00,,,0.00,WUHU216HW,2013-02-22 20:04:00,
2013-02-22 15:30:00,83.2,69.7,29.98,SE,135,5.1,5.1,64,0.00,,,0.00,WUHU216HW,2013-02-22 20:30:00,
2013-02-22 15:35:00,83.2,69.7,29.98,SE,135,5.1,5.1,64,0.00,,,0.00,WUHU216HW,2013-02-22 20:35:00,
2013-02-22 15:59:00,81.9,69.4,29.98,SSE,158,2.5,2.5,66,0.00,,,0.00,WUHU216HW,2013-02-22 20:59:00,
2013-02-22 16:05:00,81.9,69.4,29.98,SSE,158,2.5,2.5,66,0.00,,,0.00,WUHU216HW,2013-02-22 21:05:00,
2013-02-22 16:29:00,83.2,71.0,29.98,SSW,203,2.2,2.2,67,0.00,,,0.00,WUHU216HW,2013-02-22 21:29:00,
2013-02-22 16:35:00,83.2,71.0,29.98,SSW,203,2.2,2.2,67,0.00,,,0.00,WUHU216HW,2013-02-22 21:35:00,
2013-02-22 16:59:00,82.6,70.5,29.98,SSE,158,1.6,1.6,67,0.00,,,0.00,WUHU216HW,2013-02-22 21:59:00,
2013-02-22 17:04:00,82.6,70.5,29.98,SSE,158,1.6,1.6,67,0.00,,,0.00,WUHU216HW,2013-02-22 22:04:00,
2013-02-22 17:30:00,81.7,69.7,29.98,SE,135,0.7,0.7,67,0.00,,,0.00,WUHU216HW,2013-02-22 22:30:00,
2013-02-22 17:35:00,81.7,69.7,29.98,SE,135,0.7,0.7,67,0.00,,,0.00,WUHU216HW,2013-02-22 22:35:00,
2013-02-22 17:59:00,79.6,69.3,29.99,SSE,158,1.8,1.8,71,0.00,,,0.00,WUHU216HW,2013-02-22 22:59:00,
2013-02-22 18:05:00,79.6,69.3,29.99,SSE,158,1.8,1.8,71,0.00,,,0.00,WUHU216HW,2013-02-22 23:05:00,
2013-02-22 18:29:00,77.4,68.5,29.99,ESE,113,1.1,1.1,74,0.00,,,0.00,WUHU216HW,2013-02-22 23:29:00,
2013-02-22 18:34:00,77.4,68.5,29.99,ESE,113,1.1,1.1,74,0.00,,,0.00,WUHU216HW,2013-02-22 23:34:00,
2013-02-22 18:59:00,76.5,68.0,30.00,SE,135,0.2,0.2,75,0.00,,,0.00,WUHU216HW,2013-02-22 23:59:00,
2013-02-22 19:05:00,76.5,68.0,30.00,SE,135,0.2,0.2,75,0.00,,,0.00,WUHU216HW,2013-02-23 00:05:00,
2013-02-22 19:29:00,75.8,68.0,30.00,SSE,158,0.4,0.4,77,0.00,,,0.00,WUHU216HW,2013-02-23 00:29:00,
2013-02-22 19:34:00,75.8,68.0,30.00,SSE,158,0.4,0.4,77,0.00,,,0.00,WUHU216HW,2013-02-23 00:34:00,
2013-02-22 20:00:00,75.1,67.8,30.01,SSE,158,0.4,0.4,78,0.00,,,0.00,WUHU216HW,2013-02-23 01:00:00,
2013-02-22 20:05:00,75.1,67.8,30.01,SSE,158,0.4,0.4,78,0.00,,,0.00,WUHU216HW,2013-02-23 01:05:00,
2013-02-22 20:29:00,75.1,67.8,30.02,SE,135,0.0,0.0,78,0.00,,,0.00,WUHU216HW,2013-02-23 01:29:00,
2013-02-22 20:34:00,75.1,67.8,30.02,SE,135,0.0,0.0,78,0.00,,,0.00,WUHU216HW,2013-02-23 01:34:00,
2013-02-22 20:59:00,74.5,67.7,30.03,SE,135,0.0,0.0,79,0.00,,,0.00,WUHU216HW,2013-02-23 01:59:00,
2013-02-22 21:04:00,74.5,67.7,30.03,SE,135,0.0,0.0,79,0.00,,,0.00,WUHU216HW,2013-02-23 02:04:00,
2013-02-22 21:29:00,73.6,66.8,30.03,SE,135,0.0,0.0,79,0.00,,,0.00,WUHU216HW,2013-02-23 02:29:00,
2013-02-22 21:34:00,73.6,66.8,30.03,SE,135,0.0,0.0,79,0.00,,,0.00,WUHU216HW,2013-02-23 02:34:00,
2013-02-22 21:59:00,72.9,66.4,30.03,NE,45,0.7,0.7,80,0.00,,,0.00,WUHU216HW,2013-02-23 02:59:00,
2013-02-22 22:05:00,72.9,66.4,30.03,NE,45,0.7,0.7,80,0.00,,,0.00,WUHU216HW,2013-02-23 03:05:00,
2013-02-22 22:29:00,72.4,66.3,30.03,SE,135,1.1,1.1,81,0.00,,,0.00,WUHU216HW,2013-02-23 03:29:00,
2013-02-22 22:34:00,72.4,66.3,30.03,SE,135,1.1,1.1,81,0.00,,,0.00,WUHU216HW,2013-02-23 03:34:00,
2013-02-22 22:59:00,71.8,66.1,30.03,SSE,158,0.4,0.4,82,0.00,,,0.00,WUHU216HW,2013-02-23 03:59:00,
2013-02-22 23:04:00,71.8,66.1,30.03,SSE,158,0.4,0.4,82,0.00,,,0.00,WUHU216HW,2013-02-23 04:04:00,
2013-02-22 23:30:00,71.6,65.9,30.02,SE,135,0.4,0.4,82,0.00,,,0.00,WUHU216HW,2013-02-23 04:30:00,
2013-02-22 23:35:00,71.6,65.9,30.02,SE,135,0.4,0.4,82,0.00,,,0.00,WUHU216HW,2013-02-23 04:35:00,
2013-02-22 23:40:00,71.6,65.9,30.02,SE,135,0.4,0.4,82,0.00,,,0.00,WUHU216HW,2013-02-23 04:40:00,